Time;durP1;ratioP1;P1;durP2;ratioP2;P2;SDS_P1;SDS_P2;PMS_P1;PMS_P2;Temp;Humidity;BMP_temperature;BMP_pressure;BME280_temperature;BME280_humidity;BME280_pressure;Samples;Min_cycle;Max_cycle;Signal;HPM_P1;HPM_P2
2022/02/19 00:01:38;;;;;;;;;0.00;0.00;;;;;7.57;84.54;100904.16;5072297;28;45949;-79
2022/02/19 00:04:04;;;;;;;;;2.25;0.00;;;;;7.45;85.03;100910.03;5055225;28;47397;-80
2022/02/19 00:06:33;;;;;;;;;0.00;0.00;;;;;7.55;84.83;100895.59;5072001;28;46954;-81
2022/02/19 00:08:59;;;;;;;;;0.00;0.00;;;;;7.49;81.70;100897.69;5064298;28;46051;-81
2022/02/19 00:11:24;;;;;;;;;0.00;0.00;;;;;7.42;83.93;100886.75;5052315;28;45723;-81
2022/02/19 00:13:50;;;;;;;;;0.00;0.00;;;;;7.48;84.47;100902.06;5068787;28;45738;-82
2022/02/19 00:16:15;;;;;;;;;1.00;1.00;;;;;7.47;84.77;100913.41;5070080;28;45705;-81
2022/02/19 00:18:40;;;;;;;;;0.00;0.00;;;;;7.25;83.59;100873.75;5065848;28;46337;-80
2022/02/19 00:21:06;;;;;;;;;1.00;0.00;;;;;7.46;84.91;100926.50;5054349;28;46207;-82
2022/02/19 00:23:31;;;;;;;;;0.00;0.00;;;;;7.21;85.22;100884.44;5052434;28;45980;-81
2022/02/19 00:25:57;;;;;;;;;1.00;0.00;;;;;7.40;85.58;100925.06;5065498;28;45946;-81
2022/02/19 00:28:23;;;;;;;;;0.50;0.00;;;;;7.40;85.43;100925.06;5070274;28;46112;-81
2022/02/19 00:30:49;;;;;;;;;0.00;0.00;;;;;7.10;85.82;100869.38;5066212;28;45947;-81
2022/02/19 00:33:14;;;;;;;;;0.00;0.00;;;;;7.37;85.81;100927.00;5071392;28;45739;-82
2022/02/19 00:35:40;;;;;;;;;1.50;0.00;;;;;7.40;84.92;100939.84;5072636;28;46261;-79
2022/02/19 00:38:06;;;;;;;;;0.75;0.00;;;;;7.42;84.77;100928.44;5039920;28;47044;-80
2022/02/19 00:40:31;;;;;;;;;0.00;0.00;;;;;7.27;85.33;100939.69;5074266;28;45804;-81
2022/02/19 00:42:57;;;;;;;;;0.25;0.00;;;;;7.40;86.58;100940.69;5057458;28;46082;-82
2022/02/19 00:45:23;;;;;;;;;0.00;0.00;;;;;7.32;85.83;100944.66;5057600;28;46483;-81
2022/02/19 00:47:48;;;;;;;;;0.75;0.00;;;;;7.38;85.61;100960.81;5077202;28;46178;-81
2022/02/19 00:50:15;;;;;;;;;0.00;0.00;;;;;7.28;84.84;100936.16;5056150;28;46142;-82
2022/02/19 00:52:40;;;;;;;;;2.00;0.00;;;;;7.36;85.57;100951.38;5065269;28;45743;-82
2022/02/19 00:55:07;;;;;;;;;2.00;1.00;;;;;7.18;85.17;100949.75;5055924;28;47515;-82
2022/02/19 00:57:32;;;;;;;;;0.50;0.00;;;;;7.23;85.65;100959.00;5055668;28;46806;-80
2022/02/19 00:59:58;;;;;;;;;0.00;0.00;;;;;7.24;85.88;100957.22;5070810;28;45779;-81
2022/02/19 01:02:23;;;;;;;;;0.75;0.00;;;;;7.30;86.07;100962.97;5045634;28;46034;-81
2022/02/19 01:04:48;;;;;;;;;0.00;0.00;;;;;7.04;85.92;100921.78;5065170;28;45710;-82
2022/02/19 01:07:14;;;;;;;;;1.00;0.00;;;;;7.29;85.82;100958.66;5073417;28;46246;-82
2022/02/19 01:09:39;;;;;;;;;0.50;0.00;;;;;7.28;85.94;100959.59;5066879;28;45607;-81
2022/02/19 01:12:05;;;;;;;;;0.00;0.00;;;;;7.21;85.88;100962.59;5056393;28;45922;-81
2022/02/19 01:14:30;;;;;;;;;1.00;0.00;;;;;7.27;85.47;100968.34;5065515;28;45735;-81
2022/02/19 01:16:56;;;;;;;;;0.00;0.00;;;;;7.24;85.76;100965.03;5060669;28;46632;-81
2022/02/19 01:19:21;;;;;;;;;2.00;0.00;;;;;7.03;86.08;100933.97;5059727;28;45661;-81
2022/02/19 01:21:47;;;;;;;;;0.50;0.00;;;;;7.22;85.69;100987.75;5074987;28;45823;-81
2022/02/19 01:24:12;;;;;;;;;0.00;0.00;;;;;7.06;85.28;100946.84;5074228;28;46517;-82
2022/02/19 01:26:38;;;;;;;;;1.00;0.00;;;;;7.16;85.36;100994.94;5075180;28;45696;-81
2022/02/19 01:29:06;;;;;;;;;0.00;0.00;;;;;7.09;85.38;100990.97;5048951;28;45744;-83
2022/02/19 01:31:33;;;;;;;;;0.00;0.00;;;;;7.02;86.12;100981.75;5068497;28;46003;-81
2022/02/19 01:33:58;;;;;;;;;1.00;0.00;;;;;6.99;86.19;100999.31;5059410;28;47503;-81
2022/02/19 01:36:23;;;;;;;;;0.00;0.00;;;;;6.87;86.31;100961.69;5055695;28;46220;-81
2022/02/19 01:38:49;;;;;;;;;0.75;0.00;;;;;6.97;86.50;100975.09;5066248;28;45761;-82
2022/02/19 01:41:14;;;;;;;;;0.00;0.00;;;;;6.98;86.30;100976.78;5065909;28;45764;-80
2022/02/19 01:43:40;;;;;;;;;0.00;0.00;;;;;6.85;86.42;100975.72;5073616;28;46446;-82
2022/02/19 01:46:05;;;;;;;;;1.00;0.00;;;;;6.95;86.21;100990.81;5062237;28;46266;-82
2022/02/19 01:48:31;;;;;;;;;0.25;0.00;;;;;6.81;86.33;100967.22;5061672;28;45725;-82
2022/02/19 01:50:56;;;;;;;;;0.00;0.00;;;;;6.79;86.76;100958.66;5065499;28;45788;-81
2022/02/19 01:53:22;;;;;;;;;1.00;0.00;;;;;6.99;87.01;101002.75;5067366;28;46368;-82
2022/02/19 01:55:48;;;;;;;;;0.00;0.00;;;;;6.80;86.94;100959.50;5076455;28;46265;-82
2022/02/19 01:58:14;;;;;;;;;0.00;0.00;;;;;7.00;86.40;100993.19;5057426;28;45746;-82
2022/02/19 02:00:40;;;;;;;;;1.00;0.00;;;;;6.66;86.44;100948.00;5067336;28;45871;-81
2022/02/19 02:03:06;;;;;;;;;0.25;0.00;;;;;6.66;86.29;100957.56;5063005;28;45651;-81
2022/02/19 02:05:36;;;;;;;;;0.00;0.00;;;;;6.81;86.30;100976.78;5045224;28;48239;-80
2022/02/19 02:08:05;;;;;;;;;0.50;0.00;;;;;6.88;86.40;101012.88;5073486;28;45795;-80
2022/02/19 02:10:33;;;;;;;;;0.75;0.00;;;;;6.91;87.65;101017.09;5066221;28;45934;-80
2022/02/19 02:12:58;;;;;;;;;1.00;0.25;;;;;6.90;87.02;101008.44;5074737;28;48709;-83
2022/02/19 02:15:26;;;;;;;;;1.25;0.00;;;;;6.90;87.18;101024.06;5068339;28;46093;-80
2022/02/19 02:17:52;;;;;;;;;0.00;0.00;;;;;6.91;87.47;101012.72;5070151;28;46139;-83
2022/02/19 02:20:18;;;;;;;;;0.50;0.00;;;;;6.84;87.12;101008.75;5068187;28;45645;-81
2022/02/19 02:22:46;;;;;;;;;2.00;0.00;;;;;6.90;87.20;101021.47;5071799;28;46435;-79
2022/02/19 02:25:12;;;;;;;;;0.00;0.00;;;;;6.83;87.17;101003.59;5065241;28;46663;-81
2022/02/19 02:27:38;;;;;;;;;0.50;0.00;;;;;6.88;87.11;101015.47;5064249;28;45784;-81
2022/02/19 02:30:05;;;;;;;;;0.00;0.00;;;;;6.87;86.84;101018.16;5066117;28;45731;-80
2022/02/19 02:32:30;;;;;;;;;0.00;0.00;;;;;6.86;87.02;101019.06;5069980;28;45767;-82
2022/02/19 02:34:56;;;;;;;;;1.00;0.00;;;;;6.84;86.75;101013.94;5057285;28;45880;-81
2022/02/19 02:37:25;;;;;;;;;0.00;0.00;;;;;6.82;87.30;101014.94;5055131;28;45838;-80
2022/02/19 02:39:52;;;;;;;;;0.00;0.00;;;;;6.70;87.17;101004.19;5064531;28;45702;-81
2022/02/19 02:42:19;;;;;;;;;1.00;0.00;;;;;6.78;87.18;101003.81;5053738;28;47816;-82
2022/02/19 02:44:46;;;;;;;;;0.00;0.00;;;;;6.65;87.03;100985.34;5072871;28;46330;-82
2022/02/19 02:47:12;;;;;;;;;0.75;0.00;;;;;6.69;87.13;100999.91;5056706;28;45782;-82
2022/02/19 02:49:37;;;;;;;;;0.00;0.00;;;;;6.73;87.23;101011.88;5067859;28;45829;-80
2022/02/19 02:52:05;;;;;;;;;1.00;0.00;;;;;6.58;87.50;100988.34;5071552;28;46765;-82
2022/02/19 02:54:30;;;;;;;;;0.00;0.00;;;;;6.62;87.72;100993.31;5068391;28;46118;-82
2022/02/19 02:56:55;;;;;;;;;0.00;0.00;;;;;6.66;87.23;101002.66;5061370;28;45597;-81
2022/02/19 02:59:21;;;;;;;;;0.00;0.00;;;;;6.69;87.48;101012.91;5048609;28;45673;-80
2022/02/19 03:01:46;;;;;;;;;0.75;0.00;;;;;6.46;87.25;100976.75;5054555;28;47862;-82
2022/02/19 03:04:12;;;;;;;;;0.00;0.00;;;;;6.68;87.41;101013.84;5061145;28;46103;-82
2022/02/19 03:06:37;;;;;;;;;0.00;0.00;;;;;6.64;87.16;101024.50;5071825;28;46463;-81
2022/02/19 03:09:02;;;;;;;;;0.00;0.00;;;;;6.45;86.95;100998.50;5054425;28;45989;-82
2022/02/19 03:11:28;;;;;;;;;0.50;0.00;;;;;6.52;87.20;101002.50;5051253;28;48601;-80
2022/02/19 03:13:53;;;;;;;;;0.25;0.00;;;;;6.42;87.18;100990.84;5057091;28;46502;-80
2022/02/19 03:16:19;;;;;;;;;0.25;0.00;;;;;6.50;87.47;101014.72;5071216;28;45782;-82
2022/02/19 03:18:44;;;;;;;;;0.00;0.00;;;;;6.57;86.94;101033.50;5068236;28;45662;-81
2022/02/19 03:21:09;;;;;;;;;0.00;0.00;;;;;6.43;87.74;101015.94;5072824;28;45700;-81
2022/02/19 03:23:36;;;;;;;;;0.00;0.00;;;;;6.19;87.55;100980.69;5056686;28;48601;-81
2022/02/19 03:26:01;;;;;;;;;0.00;0.00;;;;;6.54;87.48;101042.28;5072723;28;45719;-82
2022/02/19 03:28:28;;;;;;;;;2.00;0.00;;;;;6.52;87.27;101046.75;5073525;28;45667;-82
2022/02/19 03:30:53;;;;;;;;;0.00;0.00;;;;;6.50;87.34;101038.16;5059651;27;46455;-80
2022/02/19 03:33:19;;;;;;;;;1.00;0.00;;;;;6.41;86.98;101046.41;5061668;28;46026;-82
2022/02/19 03:35:44;;;;;;;;;0.00;0.00;;;;;6.44;87.31;101040.19;5050362;28;45665;-82
2022/02/19 03:38:09;;;;;;;;;0.00;0.00;;;;;6.41;87.51;101049.00;5065196;28;45696;-80
2022/02/19 03:40:35;;;;;;;;;0.25;0.00;;;;;6.28;87.81;101020.09;5062405;27;45706;-81
2022/02/19 03:43:01;;;;;;;;;0.00;0.00;;;;;6.39;87.77;101050.81;5060766;28;46067;-81
2022/02/19 03:45:27;;;;;;;;;1.00;0.00;;;;;6.17;87.68;101022.34;5063543;28;45880;-82
2022/02/19 03:47:53;;;;;;;;;1.00;0.00;;;;;6.08;87.16;101006.34;5075174;28;45799;-81
2022/02/19 03:50:18;;;;;;;;;1.00;0.00;;;;;6.35;87.45;101054.50;5062712;28;45669;-80
2022/02/19 03:52:45;;;;;;;;;0.00;0.00;;;;;6.04;86.64;101007.41;5049521;28;47960;-84
2022/02/19 03:55:11;;;;;;;;;0.00;0.00;;;;;6.27;87.19;101048.78;5069064;28;45788;-80
2022/02/19 03:57:36;;;;;;;;;0.00;0.00;;;;;6.23;87.08;101049.84;5060636;28;45903;-81
2022/02/19 04:00:05;;;;;;;;;1.00;0.00;;;;;5.98;87.26;101021.53;5063911;28;46496;-81
2022/02/19 04:02:31;;;;;;;;;0.00;0.00;;;;;6.11;86.78;101053.84;5052206;28;46150;-82
2022/02/19 04:04:56;;;;;;;;;0.00;0.00;;;;;6.17;87.42;101061.38;5072135;28;45858;-81
2022/02/19 04:07:22;;;;;;;;;0.00;0.00;;;;;6.16;87.71;101059.69;5067057;28;45882;-80
2022/02/19 04:09:47;;;;;;;;;1.50;0.00;;;;;6.14;87.32;101065.88;5056083;28;46611;-80
2022/02/19 04:12:12;;;;;;;;;0.00;0.00;;;;;6.10;87.14;101059.13;5060595;28;45982;-83
2022/02/19 04:14:38;;;;;;;;;0.75;0.00;;;;;6.05;87.54;101048.91;5074218;28;46232;-81
2022/02/19 04:17:03;;;;;;;;;2.00;1.00;;;;;6.13;87.48;101075.44;5066296;28;45739;-78
2022/02/19 04:19:29;;;;;;;;;0.00;0.00;;;;;6.11;87.86;101079.84;5063436;28;45812;-81
2022/02/19 04:21:55;;;;;;;;;0.00;0.00;;;;;6.09;87.13;101070.44;5069313;28;45779;-79
2022/02/19 04:24:20;;;;;;;;;0.00;0.00;;;;;6.14;87.92;101084.09;5060994;28;45664;-80
2022/02/19 04:26:45;;;;;;;;;0.25;0.25;;;;;6.07;87.22;101072.25;5067612;28;45841;-80
2022/02/19 04:29:11;;;;;;;;;0.00;0.00;;;;;6.10;88.03;101085.97;5074748;28;46349;-79
2022/02/19 04:31:38;;;;;;;;;0.25;0.00;;;;;6.07;87.72;101096.53;5055976;28;46095;-82
2022/02/19 04:34:03;;;;;;;;;0.00;0.00;;;;;5.85;87.54;101057.59;5066271;28;45918;-81
2022/02/19 04:36:29;;;;;;;;;1.00;0.00;;;;;6.10;88.00;101106.78;5071209;27;45943;-81
2022/02/19 04:38:54;;;;;;;;;0.00;0.00;;;;;6.08;88.14;101108.63;5068689;28;46477;-81
2022/02/19 04:41:19;;;;;;;;;0.00;0.00;;;;;6.10;87.92;101113.75;5075092;28;46563;-80
2022/02/19 04:43:45;;;;;;;;;0.00;0.00;;;;;6.09;87.63;101102.50;5053080;28;45656;-80
2022/02/19 04:46:10;;;;;;;;;0.75;0.00;;;;;5.93;87.69;101091.09;5056351;28;46187;-81
2022/02/19 04:48:36;;;;;;;;;1.00;0.00;;;;;6.06;88.00;101112.19;5064835;28;46191;-81
2022/02/19 04:51:01;;;;;;;;;0.00;0.00;;;;;6.02;87.62;101108.03;5054377;28;46100;-81
2022/02/19 04:53:26;;;;;;;;;0.00;0.00;;;;;5.97;87.53;101121.25;5061079;28;46097;-82
2022/02/19 04:55:52;;;;;;;;;0.25;0.00;;;;;5.82;87.60;101099.34;5045079;28;45678;-81
2022/02/19 04:58:17;;;;;;;;;1.00;0.00;;;;;6.05;87.70;101145.16;5063316;28;45586;-80
2022/02/19 05:00:43;;;;;;;;;1.00;0.00;;;;;5.90;87.80;101117.22;5070298;28;46203;-79
2022/02/19 05:03:08;;;;;;;;;1.00;0.50;;;;;5.93;87.62;101116.25;5065492;28;45684;-81
2022/02/19 05:05:33;;;;;;;;;1.50;0.00;;;;;5.99;87.87;101137.63;5065933;28;45753;-80
2022/02/19 05:07:59;;;;;;;;;1.00;0.00;;;;;5.84;87.44;101114.84;5064780;28;47216;-80
2022/02/19 05:10:24;;;;;;;;;0.00;0.00;;;;;5.97;87.22;101139.44;5041505;28;46398;-81
2022/02/19 05:12:51;;;;;;;;;0.00;0.00;;;;;5.95;87.48;101133.47;5069928;28;46016;-81
2022/02/19 05:15:18;;;;;;;;;0.00;0.00;;;;;5.80;87.67;101114.16;5066621;28;45590;-81
2022/02/19 05:17:44;;;;;;;;;0.00;0.00;;;;;5.72;87.58;101108.41;5068212;28;46003;-81
2022/02/19 05:20:10;;;;;;;;;0.00;0.00;;;;;5.95;87.45;101143.88;5062843;28;46438;-81
2022/02/19 05:22:36;;;;;;;;;0.00;0.00;;;;;5.88;87.59;101140.69;5070194;28;45870;-80
2022/02/19 05:25:01;;;;;;;;;1.00;0.00;;;;;5.92;87.66;101153.56;5074957;28;45912;-80
2022/02/19 05:27:26;;;;;;;;;1.00;0.00;;;;;5.89;87.68;101146.72;5074414;28;46564;-81
2022/02/19 05:29:52;;;;;;;;;4.00;0.00;;;;;5.85;87.66;101146.00;5075600;28;46104;-79
2022/02/19 05:32:18;;;;;;;;;1.00;0.00;;;;;5.86;87.42;101160.69;5070921;28;45779;-82
2022/02/19 05:34:43;;;;;;;;;0.00;0.00;;;;;5.64;87.55;101123.50;5066321;28;45841;-80
2022/02/19 05:37:08;;;;;;;;;1.00;0.00;;;;;5.85;87.55;101159.00;5070692;28;46915;-81
2022/02/19 05:39:34;;;;;;;;;1.25;1.00;;;;;5.64;87.62;101123.50;5075649;28;45899;-80
2022/02/19 05:41:59;;;;;;;;;0.00;0.00;;;;;5.73;87.53;101135.25;5071790;28;45697;-81
2022/02/19 05:44:25;;;;;;;;;1.00;0.50;;;;;5.85;87.31;101165.94;5057362;28;45610;-81
2022/02/19 05:46:50;;;;;;;;;3.75;1.00;;;;;5.78;87.16;101147.16;5064289;28;46492;-81
2022/02/19 05:49:16;;;;;;;;;1.00;0.75;;;;;5.82;87.44;101151.34;5055168;28;47084;-80
2022/02/19 05:51:41;;;;;;;;;0.00;0.00;;;;;5.71;87.77;101139.69;5070445;28;45777;-80
2022/02/19 05:54:06;;;;;;;;;0.75;0.00;;;;;5.83;88.02;101159.97;5066765;28;46083;-81
2022/02/19 05:56:32;;;;;;;;;1.00;1.00;;;;;5.83;87.70;101163.41;5074216;28;45652;-82
2022/02/19 05:58:57;;;;;;;;;0.00;0.00;;;;;5.78;87.63;101152.34;5073954;28;46020;-80
2022/02/19 06:01:23;;;;;;;;;0.75;0.00;;;;;5.72;87.39;101144.00;5067789;27;45874;-82
2022/02/19 06:03:48;;;;;;;;;1.00;0.00;;;;;5.71;87.84;101137.94;5056321;28;46145;-79
2022/02/19 06:06:16;;;;;;;;;2.00;0.00;;;;;5.70;87.22;101143.19;5076967;28;46867;-83
2022/02/19 06:08:42;;;;;;;;;0.00;0.00;;;;;5.70;87.82;101141.44;5068074;28;46220;-82
2022/02/19 06:11:08;;;;;;;;;0.00;0.00;;;;;5.53;87.32;101104.94;5069911;28;45985;-81
2022/02/19 06:13:33;;;;;;;;;0.00;0.00;;;;;5.72;87.33;101138.78;5047966;28;45945;-85
2022/02/19 06:16:00;;;;;;;;;1.00;0.00;;;;;5.85;87.94;101171.13;5057415;28;47801;-83
2022/02/19 06:18:26;;;;;;;;;0.00;0.00;;;;;5.53;87.67;101117.91;5071988;28;46309;-84
2022/02/19 06:20:52;;;;;;;;;0.50;0.00;;;;;5.87;87.58;101167.63;5055263;28;45990;-86
2022/02/19 06:23:17;;;;;;;;;1.00;1.00;;;;;5.82;87.39;101169.53;5046524;28;45961;-83
2022/02/19 06:25:44;;;;;;;;;0.00;0.00;;;;;5.83;87.58;101167.78;5053297;28;46504;-87
2022/02/19 06:28:10;;;;;;;;;0.00;0.00;;;;;5.26;87.19;101061.91;5073578;28;46186;-83
2022/02/19 06:30:35;;;;;;;;;2.00;0.00;;;;;5.90;87.57;101180.47;5053133;28;46034;-85
2022/02/19 06:33:01;;;;;;;;;0.75;0.00;;;;;5.92;87.31;101174.38;5056207;28;45849;-87
2022/02/19 06:35:27;;;;;;;;;1.00;0.25;;;;;5.76;87.74;101158.53;5051447;28;48660;-85
2022/02/19 06:37:53;;;;;;;;;0.75;0.00;;;;;5.51;87.12;101118.91;5051733;28;47280;-86
2022/02/19 06:40:19;;;;;;;;;0.00;0.00;;;;;5.66;87.84;101152.03;5066872;28;46248;-87
2022/02/19 06:42:44;;;;;;;;;0.75;0.00;;;;;5.89;87.25;101194.38;5051790;28;45796;-87
2022/02/19 06:45:10;;;;;;;;;0.00;0.00;;;;;5.87;87.22;101197.97;5046751;28;47932;-86
2022/02/19 06:47:36;;;;;;;;;0.00;0.00;;;;;5.78;86.92;101196.53;5048679;28;47402;-84
2022/02/19 06:50:04;;;;;;;;;0.75;0.00;;;;;5.35;87.34;101124.72;5052892;28;45738;-86
2022/02/19 06:52:30;;;;;;;;;1.25;0.00;;;;;5.83;87.29;101215.41;5051415;28;45907;-87
2022/02/19 06:54:56;;;;;;;;;1.00;0.00;;;;;5.26;86.39;101119.91;5054175;28;48476;-87
2022/02/19 06:57:22;;;;;;;;;0.00;0.00;;;;;5.79;86.97;101219.03;5067158;28;47959;-85
2022/02/19 06:59:51;;;;;;;;;0.50;0.00;;;;;5.59;87.14;101205.19;5061573;28;45753;-84
2022/02/19 07:02:18;;;;;;;;;0.00;0.00;;;;;5.59;87.18;101206.03;5058512;28;45738;-88
2022/02/19 07:04:45;;;;;;;;;0.00;0.00;;;;;5.33;87.33;101167.28;5055878;28;48636;-87
2022/02/19 07:07:12;;;;;;;;;1.00;0.00;;;;;5.59;86.89;101211.22;5057622;28;46891;-86
2022/02/19 07:09:37;;;;;;;;;1.00;0.00;;;;;5.26;86.62;101160.63;5055926;28;45885;-87
2022/02/19 07:12:05;;;;;;;;;1.00;1.00;;;;;5.56;86.90;101226.09;5036349;28;45867;-87
2022/02/19 07:14:31;;;;;;;;;3.25;1.75;;;;;5.49;86.88;101215.09;5074008;28;45848;-85
2022/02/19 07:17:04;;;;;;;;;1.00;0.00;;;;;5.25;86.26;101169.31;5056708;28;47416;-86
2022/02/19 07:19:32;;;;;;;;;0.75;0.50;;;;;5.63;87.24;101233.56;5049987;28;45977;-87
2022/02/19 07:21:58;;;;;;;;;0.00;0.00;;;;;5.37;87.16;101187.00;5060299;28;46024;-86
2022/02/19 07:24:23;;;;;;;;;0.75;0.00;;;;;5.41;87.22;101197.22;5059075;28;48101;-84
2022/02/19 07:26:49;;;;;;;;;2.00;0.50;;;;;5.73;87.73;101247.03;5078390;28;45756;-86
2022/02/19 07:29:14;;;;;;;;;1.00;0.00;;;;;5.48;87.64;101211.66;5051286;28;46079;-86
2022/02/19 07:31:40;;;;;;;;;0.25;0.00;;;;;5.76;87.06;101257.31;5052990;28;45644;-85
2022/02/19 07:34:05;;;;;;;;;1.00;0.25;;;;;5.39;87.20;101190.41;5055498;28;48306;-85
2022/02/19 07:36:31;;;;;;;;;1.75;0.00;;;;;5.34;86.95;101187.16;5057398;28;47490;-85
2022/02/19 07:38:57;;;;;;;;;1.50;0.25;;;;;5.66;87.36;101240.41;5046262;28;45938;-86
2022/02/19 07:41:23;;;;;;;;;0.00;0.00;;;;;5.31;86.85;101188.09;5055959;28;46147;-87
2022/02/19 07:43:48;;;;;;;;;0.00;0.00;;;;;5.08;87.18;101165.63;5043804;28;47644;-86
2022/02/19 07:46:14;;;;;;;;;0.00;0.00;;;;;5.35;86.62;101212.19;5056014;28;47391;-86
2022/02/19 07:48:39;;;;;;;;;0.00;0.00;;;;;5.77;86.97;101292.81;5058951;28;45675;-86
2022/02/19 07:59:17;;;;;;;;;0.50;0.00;;;;;5.53;86.34;101276.44;5072221;28;46027;-88
2022/02/19 08:01:42;;;;;;;;;1.25;0.00;;;;;5.65;86.38;101304.53;5081344;28;45543;-87
2022/02/19 08:04:08;;;;;;;;;0.00;0.00;;;;;5.37;86.02;101259.75;5070023;28;48071;-87
2022/02/19 08:06:34;;;;;;;;;0.75;0.00;;;;;5.45;86.31;101276.72;5087347;28;46405;-86
2022/02/19 08:08:59;;;;;;;;;1.25;0.00;;;;;4.87;85.78;101195.03;5066015;28;45759;-87
2022/02/19 08:11:25;;;;;;;;;0.00;0.00;;;;;5.62;86.16;101312.44;5060039;28;45877;-86
2022/02/19 08:13:50;;;;;;;;;1.00;0.00;;;;;5.62;86.32;101304.66;5062765;28;47074;-87
2022/02/19 08:16:16;;;;;;;;;7.75;1.00;;;;;5.63;86.01;101308.94;5049226;28;47015;-87
2022/02/19 08:18:42;;;;;;;;;1.00;1.00;;;;;5.21;86.39;101225.75;5079698;28;45873;-83
2022/02/19 08:21:08;;;;;;;;;1.00;0.00;;;;;5.44;86.31;101269.88;5084402;28;45764;-83
2022/02/19 08:23:55;;;;;;;;;0.25;0.25;;;;;5.68;86.15;101309.59;5092237;28;45568;-90
2022/02/19 08:26:27;;;;;;;;;2.00;0.00;;;;;5.25;86.04;101227.31;5070982;28;46968;-89
2022/02/19 08:28:57;;;;;;;;;0.00;0.00;;;;;5.75;86.20;101300.66;5085684;28;45660;-88
2022/02/19 08:31:49;;;;;;;;;1.00;0.25;;;;;5.56;85.40;101267.69;5063720;28;45616;-90
2022/02/19 08:34:15;;;;;;;;;0.00;0.00;;;;;5.05;86.21;101181.34;5079116;28;47702;-89
2022/02/19 08:36:42;;;;;;;;;0.00;0.00;;;;;5.10;85.92;101180.31;5073048;28;47040;-91
2022/02/19 08:39:08;;;;;;;;;0.50;0.00;;;;;5.91;85.91;101303.53;5066532;28;45741;-90
2022/02/19 08:41:35;;;;;;;;;1.00;0.75;;;;;5.54;85.73;101248.69;5080697;28;45596;-91
2022/02/19 08:44:01;;;;;;;;;0.75;0.00;;;;;6.01;86.13;101310.03;5083951;28;47013;-89
2022/02/19 08:46:26;;;;;;;;;1.75;0.00;;;;;5.62;85.41;101239.69;5077164;28;47308;-90
2022/02/19 08:48:57;;;;;;;;;3.00;0.00;;;;;5.87;86.14;101288.97;5077603;28;45404;-90
2022/02/19 08:51:24;;;;;;;;;1.00;0.25;;;;;5.70;85.67;101240.22;5081395;28;45205;-90
2022/02/19 08:54:07;;;;;;;;;1.00;0.00;;;;;6.17;85.46;101329.31;5081782;28;47042;-90
2022/02/19 08:56:58;;;;;;;;;0.25;0.00;;;;;6.15;85.44;101314.69;5087731;28;45798;-89
2022/02/19 08:59:23;;;;;;;;;1.00;0.25;;;;;5.63;85.08;101241.38;5067200;28;45991;-85
2022/02/19 09:01:49;;;;;;;;;0.75;0.00;;;;;5.81;85.05;101264.03;5080101;28;45520;-84
2022/02/19 09:04:14;;;;;;;;;1.75;0.00;;;;;6.31;85.51;101333.97;5059753;28;48406;-86
2022/02/19 09:06:42;;;;;;;;;1.00;0.25;;;;;6.24;85.00;101317.75;5062960;28;45676;-87
2022/02/19 09:09:08;;;;;;;;;0.75;0.75;;;;;6.24;84.80;101324.72;5078863;28;45965;-84
2022/02/19 09:11:35;;;;;;;;;0.75;0.00;;;;;6.40;85.11;101327.50;5062189;28;45942;-86
2022/02/19 09:14:04;;;;;;;;;0.25;0.25;;;;;6.45;84.63;101349.81;5078810;28;46885;-83
2022/02/19 09:16:32;;;;;;;;;4.00;1.00;;;;;6.02;84.64;101277.94;5068643;28;47408;-85
2022/02/19 09:18:58;;;;;;;;;1.00;0.00;;;;;6.55;84.91;101368.50;5056297;28;45972;-85
2022/02/19 09:21:25;;;;;;;;;3.00;0.00;;;;;6.26;84.45;101308.09;5078092;28;45736;-89
2022/02/19 09:23:51;;;;;;;;;1.25;1.00;;;;;6.37;84.51;101299.03;5076261;28;46634;-82
2022/02/19 09:26:17;;;;;;;;;2.00;0.00;;;;;6.67;84.19;101345.41;5066543;28;46099;-82
2022/02/19 09:28:42;;;;;;;;;0.00;0.00;;;;;6.51;84.42;101312.28;5071966;28;45743;-86
2022/02/19 09:31:08;;;;;;;;;0.33;0.00;;;;;6.74;84.38;101339.03;5057170;28;46023;-82
2022/02/19 09:33:33;;;;;;;;;1.25;1.00;;;;;6.60;83.91;101301.47;5069178;28;46718;-82
2022/02/19 09:35:58;;;;;;;;;1.00;1.00;;;;;6.83;84.26;101329.97;5058755;28;48404;-85
2022/02/19 09:38:24;;;;;;;;;8.75;3.75;;;;;6.86;84.31;101318.53;5068704;28;45817;-83
2022/02/19 09:41:01;;;;;;;;;4.00;0.00;;;;;6.89;84.22;101328.84;5075646;28;45608;-83
2022/02/19 09:43:27;;;;;;;;;1.00;0.00;;;;;6.98;83.76;101334.47;5074016;28;46670;-83
2022/02/19 09:45:53;;;;;;;;;0.50;0.00;;;;;7.04;84.02;101326.41;5057645;28;46634;-83
2022/02/19 09:48:21;;;;;;;;;0.50;0.25;;;;;7.10;83.78;101333.09;5060131;28;45917;-83
2022/02/19 09:50:51;;;;;;;;;1.75;1.00;;;;;7.11;83.69;101316.56;5064379;28;46327;-83
2022/02/19 09:53:17;;;;;;;;;1.50;0.00;;;;;7.02;83.81;101291.75;5067041;28;46155;-80
2022/02/19 09:55:43;;;;;;;;;1.00;0.00;;;;;7.22;83.75;101323.88;5055683;28;47180;-82
2022/02/19 09:58:08;;;;;;;;;0.00;0.00;;;;;7.26;83.81;101321.06;5067962;28;46077;-82
2022/02/19 10:00:43;;;;;;;;;0.25;0.00;;;;;7.17;83.20;101308.47;5074167;28;45793;-82
2022/02/19 10:03:20;;;;;;;;;3.00;2.00;;;;;7.45;83.20;101336.72;5072510;28;45793;-81
2022/02/19 10:05:46;;;;;;;;;0.00;0.00;;;;;7.46;83.02;101333.16;5060617;28;46191;-80
2022/02/19 10:08:11;;;;;;;;;1.00;1.00;;;;;7.31;83.00;101285.19;5069638;28;45835;-81
2022/02/19 10:10:40;;;;;;;;;1.00;0.25;;;;;7.59;83.39;101319.50;5073423;28;45998;-81
2022/02/19 10:13:06;;;;;;;;;0.00;0.00;;;;;7.53;82.83;101301.53;5052517;28;48707;-81
2022/02/19 10:15:58;;;;;;;;;0.50;0.00;;;;;7.72;82.73;101322.34;5072085;28;46213;-80
2022/02/19 10:18:33;;;;;;;;;0.00;0.00;;;;;7.78;82.43;101321.22;5068197;28;46022;-81
2022/02/19 10:21:12;;;;;;;;;0.25;0.00;;;;;7.85;82.24;101322.63;5072163;28;45933;-82
2022/02/19 10:23:39;;;;;;;;;1.00;0.00;;;;;7.87;82.16;101311.19;5072432;28;45628;-82
2022/02/19 10:26:05;;;;;;;;;1.00;0.00;;;;;7.92;82.08;101308.34;5072506;28;46437;-82
2022/02/19 10:28:31;;;;;;;;;0.00;0.00;;;;;7.98;82.07;101308.91;5073787;28;45651;-81
2022/02/19 10:31:08;;;;;;;;;1.00;0.00;;;;;8.06;82.14;101311.13;5068217;28;45748;-80
2022/02/19 10:33:34;;;;;;;;;0.75;0.00;;;;;8.06;81.41;101297.22;5063559;28;46780;-84
2022/02/19 10:36:01;;;;;;;;;0.50;0.00;;;;;8.16;81.72;101309.75;5063607;28;46333;-82
2022/02/19 10:38:26;;;;;;;;;0.00;0.00;;;;;8.20;81.65;101316.53;5068765;28;45570;-81
2022/02/19 10:40:57;;;;;;;;;0.75;0.00;;;;;8.16;81.22;101288.88;5066799;28;46174;-82
2022/02/19 10:43:30;;;;;;;;;0.00;0.00;;;;;8.07;81.39;101265.84;5049863;28;48317;-83
2022/02/19 10:45:58;;;;;;;;;2.00;0.00;;;;;8.05;81.18;101253.78;5064389;28;47500;-83
2022/02/19 10:48:24;;;;;;;;;0.00;0.00;;;;;8.45;80.89;101307.47;5053063;28;46159;-81
2022/02/19 10:50:50;;;;;;;;;1.00;0.00;;;;;8.49;81.09;101309.84;5066623;28;45635;-81
2022/02/19 10:53:27;;;;;;;;;0.00;0.00;;;;;8.42;80.70;101280.59;5062200;28;46164;-82
2022/02/19 10:55:54;;;;;;;;;0.25;0.00;;;;;8.63;79.49;101307.38;5070376;28;45969;-82
2022/02/19 10:58:21;;;;;;;;;0.00;0.00;;;;;8.55;80.36;101272.13;5071356;28;45806;-84
2022/02/19 11:00:47;;;;;;;;;5.00;0.00;;;;;8.49;80.02;101262.00;5056625;28;45953;-85
2022/02/19 11:03:14;;;;;;;;;4.50;2.00;;;;;8.76;79.88;101294.50;5071419;27;46645;-84
2022/02/19 11:05:40;;;;;;;;;0.00;0.00;;;;;8.79;80.36;101294.38;5064616;28;47264;-85
2022/02/19 11:08:07;;;;;;;;;0.25;0.00;;;;;8.84;80.74;101297.59;5052506;28;45716;-83
2022/02/19 11:10:33;;;;;;;;;0.25;0.00;;;;;8.89;79.65;101303.41;5049028;28;46246;-86
2022/02/19 11:12:59;;;;;;;;;1.00;0.00;;;;;8.82;78.89;101281.13;5048809;28;47528;-85
2022/02/19 11:15:28;;;;;;;;;0.25;0.00;;;;;8.95;78.16;101300.47;5073178;28;46334;-83
2022/02/19 11:17:55;;;;;;;;;0.00;0.00;;;;;8.85;78.54;101276.56;5042866;28;46116;-79
2022/02/19 11:20:23;;;;;;;;;0.00;0.00;;;;;8.99;78.84;101291.53;5073968;28;45920;-79
2022/02/19 11:22:49;;;;;;;;;0.00;0.00;;;;;9.03;78.35;101287.81;5069271;28;45808;-80
2022/02/19 11:25:16;;;;;;;;;2.00;0.00;;;;;9.08;78.76;101284.97;5046894;28;46721;-78
2022/02/19 11:27:53;;;;;;;;;0.00;0.00;;;;;9.12;77.91;101295.16;5060314;28;45810;-80
2022/02/19 11:30:20;;;;;;;;;1.00;0.00;;;;;8.95;77.60;101250.81;5058835;28;45815;-78
2022/02/19 11:32:48;;;;;;;;;1.50;0.00;;;;;9.05;76.38;101249.38;5060418;28;45738;-78
2022/02/19 11:35:30;;;;;;;;;0.00;0.00;;;;;9.23;77.50;101273.69;5064536;28;46156;-82
2022/02/19 11:37:56;;;;;;;;;0.25;0.00;;;;;9.23;76.92;101258.81;5068335;28;45733;-82
2022/02/19 11:40:23;;;;;;;;;0.50;0.00;;;;;9.12;77.83;101235.03;5065750;28;45598;-81